Time;durP1;ratioP1;P1;durP2;ratioP2;P2;SDS_P1;SDS_P2;PMS_P1;PMS_P2;Temp;Humidity;BMP_temperature;BMP_pressure;BME280_temperature;BME280_humidity;BME280_pressure;Samples;Min_cycle;Max_cycle;Signal;HPM_P1;HPM_P2
2021/05/19 00:01:22;;;;;;;;;;;;;;;;;;5082198;28;19947;-67
2021/05/19 00:03:48;;;;;;;;;;;;;;;;;;5086627;28;19924;-67
2021/05/19 00:06:15;;;;;;;;;;;;;;;;;;5079492;28;19924;-65
2021/05/19 00:08:41;;;;;;;;;;;;;;;;;;5079316;28;19939;-67
2021/05/19 00:11:08;;;;;;;;;;;;;;;;;;5077087;28;19928;-67
2021/05/19 00:13:35;;;;;;;;;;;;;;;;;;5078563;28;19925;-66
2021/05/19 00:16:01;;;;;;;;;;;;;;;;;;5084530;28;19947;-67
2021/05/19 00:18:28;;;;;;;;;;;;;;;;;;5071102;28;19925;-66
2021/05/19 00:20:54;;;;;;;;;;;;;;;;;;5071887;28;19928;-66
2021/05/19 00:23:21;;;;;;;;;;;;;;;;;;5083845;28;20391;-66
2021/05/19 00:25:47;;;;;;;;;;;;;;;;;;5080198;28;19953;-66
2021/05/19 00:28:14;;;;;;;;;;;;;;;;;;5087906;28;19924;-66
2021/05/19 00:30:40;;;;;;;;;;;;;;;;;;5090698;28;19924;-67
2021/05/19 00:33:07;;;;;;;;;;;;;;;;;;5082893;28;19925;-67
2021/05/19 00:35:33;;;;;;;;;;;;;;;;;;5084536;28;19943;-66
2021/05/19 00:38:00;;;;;;;;;;;;;;;;;;5077393;28;19924;-66
2021/05/19 00:40:26;;;;;;;;;;;;;;;;;;5087059;28;20023;-66
2021/05/19 00:42:53;;;;;;;;;;;;;;;;;;5081665;28;19931;-68
2021/05/19 00:45:20;;;;;;;;;;;;;;;;;;5084639;28;19928;-66
2021/05/19 00:47:46;;;;;;;;;;;;;;;;;;5092561;28;20018;-66
2021/05/19 00:50:14;;;;;;;;;;;;;;;;;;5080127;28;21896;-66
2021/05/19 00:52:41;;;;;;;;;;;;;;;;;;5082618;28;20139;-67
2021/05/19 00:55:07;;;;;;;;;;;;;;;;;;5085416;28;19932;-67
2021/05/19 00:57:33;;;;;;;;;;;;;;;;;;5075378;28;20010;-66
2021/05/19 01:00:00;;;;;;;;;;;;;;;;;;5081129;28;20272;-66
2021/05/19 01:02:26;;;;;;;;;;;;;;;;;;5072455;28;20335;-66
2021/05/19 01:04:53;;;;;;;;;;;;;;;;;;5078508;28;19924;-66
2021/05/19 01:07:24;;;;;;;;;;;;;;;;;;5078555;28;19931;-67
2021/05/19 01:09:50;;;;;;;;;;;;;;;;;;5078714;28;19930;-67
2021/05/19 01:12:16;;;;;;;;;;;;;;;;;;5090823;28;19951;-66
2021/05/19 01:14:42;;;;;;;;;;;;;;;;;;5075045;28;19925;-69
2021/05/19 01:17:09;;;;;;;;;;;;;;;;;;5076783;28;19932;-66
2021/05/19 01:19:35;;;;;;;;;;;;;;;;;;5071274;28;19951;-67
2021/05/19 01:22:02;;;;;;;;;;;;;;;;;;5070945;28;19925;-66
2021/05/19 01:24:28;;;;;;;;;;;;;;;;;;5071545;28;19925;-66
2021/05/19 01:26:55;;;;;;;;;;;;;;;;;;5071289;28;19931;-66
2021/05/19 01:29:21;;;;;;;;;;;;;;;;;;5070046;28;20377;-66
2021/05/19 01:31:48;;;;;;;;;;;;;;;;;;5070564;28;19967;-67
2021/05/19 01:34:14;;;;;;;;;;;;;;;;;;5070836;28;19924;-67
2021/05/19 01:36:41;;;;;;;;;;;;;;;;;;5070590;28;19932;-66
2021/05/19 01:39:07;;;;;;;;;;;;;;;;;;5087620;28;19928;-66
2021/05/19 01:41:33;;;;;;;;;;;;;;;;;;5070868;28;19936;-66
2021/05/19 01:44:00;;;;;;;;;;;;;;;;;;5071274;28;19924;-67
2021/05/19 01:46:26;;;;;;;;;;;;;;;;;;5070836;28;19928;-66
2021/05/19 01:48:53;;;;;;;;;;;;;;;;;;5070678;28;20419;-66
2021/05/19 01:51:19;;;;;;;;;;;;;;;;;;5070566;28;20419;-66
2021/05/19 01:53:46;;;;;;;;;;;;;;;;;;5070948;28;19931;-67
2021/05/19 01:56:12;;;;;;;;;;;;;;;;;;5070118;28;19982;-66
2021/05/19 01:58:38;;;;;;;;;;;;;;;;;;5070801;28;19924;-66
2021/05/19 02:01:05;;;;;;;;;;;;;;;;;;5070645;28;19930;-67
2021/05/19 02:03:31;;;;;;;;;;;;;;;;;;5072188;28;19924;-67
2021/05/19 02:05:58;;;;;;;;;;;;;;;;;;5084667;28;20008;-67
2021/05/19 02:08:24;;;;;;;;;;;;;;;;;;5071582;28;19924;-66
2021/05/19 02:10:51;;;;;;;;;;;;;;;;;;5074353;28;19931;-67
2021/05/19 02:13:19;;;;;;;;;;;;;;;;;;5078220;28;19928;-67
2021/05/19 02:15:45;;;;;;;;;;;;;;;;;;5088293;28;19924;-67
2021/05/19 02:18:12;;;;;;;;;;;;;;;;;;5073478;28;19924;-66
2021/05/19 02:20:38;;;;;;;;;;;;;;;;;;5086462;28;19924;-66
2021/05/19 02:23:05;;;;;;;;;;;;;;;;;;5070458;28;19999;-66
2021/05/19 02:25:31;;;;;;;;;;;;;;;;;;5070127;28;19924;-66
2021/05/19 02:27:57;;;;;;;;;;;;;;;;;;5070313;28;20350;-66
2021/05/19 02:30:25;;;;;;;;;;;;;;;;;;5070332;28;19925;-66
2021/05/19 02:32:52;;;;;;;;;;;;;;;;;;5069870;28;20380;-67
2021/05/19 02:35:18;;;;;;;;;;;;;;;;;;5070355;28;19933;-65
2021/05/19 02:37:45;;;;;;;;;;;;;;;;;;5070750;28;19977;-66
2021/05/19 02:40:11;;;;;;;;;;;;;;;;;;5069882;28;19977;-66
2021/05/19 02:42:38;;;;;;;;;;;;;;;;;;5070411;28;19997;-66
2021/05/19 02:45:04;;;;;;;;;;;;;;;;;;5070470;28;19977;-66
2021/05/19 02:47:31;;;;;;;;;;;;;;;;;;5070111;28;19931;-66
2021/05/19 02:49:57;;;;;;;;;;;;;;;;;;5069278;28;19928;-66
2021/05/19 02:52:23;;;;;;;;;;;;;;;;;;5073035;28;19924;-67
2021/05/19 02:54:50;;;;;;;;;;;;;;;;;;5078573;28;19924;-67
2021/05/19 02:57:16;;;;;;;;;;;;;;;;;;5082155;28;19924;-66
2021/05/19 02:59:43;;;;;;;;;;;;;;;;;;5080441;28;19924;-66
2021/05/19 03:02:09;;;;;;;;;;;;;;;;;;5074421;28;19925;-67
2021/05/19 03:04:36;;;;;;;;;;;;;;;;;;5083832;28;19966;-65
2021/05/19 03:07:03;;;;;;;;;;;;;;;;;;5075445;28;19924;-66
2021/05/19 03:09:30;;;;;;;;;;;;;;;;;;5075642;28;19932;-67
2021/05/19 03:11:56;;;;;;;;;;;;;;;;;;5082508;28;20399;-65
2021/05/19 03:14:22;;;;;;;;;;;;;;;;;;5080473;28;19925;-65
2021/05/19 03:16:49;;;;;;;;;;;;;;;;;;5079649;28;19924;-67
2021/05/19 03:19:15;;;;;;;;;;;;;;;;;;5089818;28;19928;-67
2021/05/19 03:21:42;;;;;;;;;;;;;;;;;;5084301;28;19984;-66
2021/05/19 03:24:08;;;;;;;;;;;;;;;;;;5087175;28;20392;-67
2021/05/19 03:26:35;;;;;;;;;;;;;;;;;;5095079;28;19925;-66
2021/05/19 03:29:01;;;;;;;;;;;;;;;;;;5098027;22;19929;-69
2021/05/19 03:31:28;;;;;;;;;;;;;;;;;;5051415;28;20451;-74
2021/05/19 03:33:54;;;;;;;;;;;;;;;;;;5052613;28;20373;-69
2021/05/19 03:36:21;;;;;;;;;;;;;;;;;;5044166;28;19933;-69
2021/05/19 03:38:47;;;;;;;;;;;;;;;;;;5051595;28;20023;-69
2021/05/19 03:41:14;;;;;;;;;;;;;;;;;;5062727;28;20015;-71
2021/05/19 03:43:40;;;;;;;;;;;;;;;;;;5053890;28;19929;-70
2021/05/19 03:46:07;;;;;;;;;;;;;;;;;;5056762;28;20291;-70
2021/05/19 03:48:33;;;;;;;;;;;;;;;;;;5052055;28;20282;-70
2021/05/19 03:51:00;;;;;;;;;;;;;;;;;;5056203;28;19987;-70
2021/05/19 03:53:26;;;;;;;;;;;;;;;;;;5060096;28;20023;-71
2021/05/19 03:55:53;;;;;;;;;;;;;;;;;;5062924;28;19952;-70
2021/05/19 03:58:19;;;;;;;;;;;;;;;;;;5063082;28;19988;-70
2021/05/19 04:00:46;;;;;;;;;;;;;;;;;;5053454;28;19931;-70
2021/05/19 04:03:12;;;;;;;;;;;;;;;;;;5057642;28;19980;-70
2021/05/19 04:05:39;;;;;;;;;;;;;;;;;;5070499;28;19931;-70
2021/05/19 04:08:06;;;;;;;;;;;;;;;;;;5068677;28;20136;-69
2021/05/19 04:10:32;;;;;;;;;;;;;;;;;;5058895;28;19968;-69
2021/05/19 04:13:00;;;;;;;;;;;;;;;;;;5054966;28;19928;-73
2021/05/19 04:15:26;;;;;;;;;;;;;;;;;;5053801;28;19932;-69
2021/05/19 04:17:53;;;;;;;;;;;;;;;;;;5051434;28;20111;-69
2021/05/19 04:20:19;;;;;;;;;;;;;;;;;;5049622;28;19929;-69
2021/05/19 04:22:46;;;;;;;;;;;;;;;;;;5057565;28;20023;-70
2021/05/19 04:25:12;;;;;;;;;;;;;;;;;;5053706;28;20251;-69
2021/05/19 04:27:39;;;;;;;;;;;;;;;;;;5051754;28;20163;-69
2021/05/19 04:30:05;;;;;;;;;;;;;;;;;;5055429;28;20378;-71
2021/05/19 04:32:32;;;;;;;;;;;;;;;;;;5053706;28;19930;-69
2021/05/19 04:34:58;;;;;;;;;;;;;;;;;;5053303;28;19933;-70
2021/05/19 04:37:25;;;;;;;;;;;;;;;;;;5050268;28;19983;-70
2021/05/19 04:39:51;;;;;;;;;;;;;;;;;;5050837;28;19925;-68
2021/05/19 04:42:18;;;;;;;;;;;;;;;;;;5050917;28;19932;-69
2021/05/19 04:44:44;;;;;;;;;;;;;;;;;;5050758;28;19933;-71
2021/05/19 04:47:11;;;;;;;;;;;;;;;;;;5050414;28;20011;-68
2021/05/19 04:49:37;;;;;;;;;;;;;;;;;;5060194;28;19925;-68
2021/05/19 04:52:04;;;;;;;;;;;;;;;;;;5054153;28;20017;-70
2021/05/19 04:54:30;;;;;;;;;;;;;;;;;;5051926;28;19935;-70
2021/05/19 04:56:57;;;;;;;;;;;;;;;;;;5052269;28;19947;-70
2021/05/19 04:59:23;;;;;;;;;;;;;;;;;;5050339;28;20391;-70
2021/05/19 05:01:50;;;;;;;;;;;;;;;;;;5053362;28;19928;-69
2021/05/19 05:04:16;;;;;;;;;;;;;;;;;;5051770;28;19932;-70
2021/05/19 05:06:43;;;;;;;;;;;;;;;;;;5054820;28;20019;-70
2021/05/19 05:09:09;;;;;;;;;;;;;;;;;;5053025;28;19933;-70
2021/05/19 05:11:36;;;;;;;;;;;;;;;;;;5054564;28;19963;-70
2021/05/19 05:14:02;;;;;;;;;;;;;;;;;;5053229;28;20407;-70
2021/05/19 05:16:29;;;;;;;;;;;;;;;;;;5053045;28;19951;-69
2021/05/19 05:18:55;;;;;;;;;;;;;;;;;;5051418;28;19929;-71
2021/05/19 05:21:22;;;;;;;;;;;;;;;;;;5048654;28;19924;-72
2021/05/19 05:23:48;;;;;;;;;;;;;;;;;;5052133;28;19936;-68
2021/05/19 05:26:15;;;;;;;;;;;;;;;;;;5051838;28;20019;-69
2021/05/19 05:28:44;;;;;;;;;;;;;;;;;;5049906;28;20090;-70
2021/05/19 05:31:10;;;;;;;;;;;;;;;;;;5046661;28;19928;-71
2021/05/19 05:33:37;;;;;;;;;;;;;;;;;;5043928;28;20055;-69
2021/05/19 05:36:04;;;;;;;;;;;;;;;;;;5050221;28;20392;-69
2021/05/19 05:38:33;;;;;;;;;;;;;;;;;;5048457;28;19929;-70
2021/05/19 05:40:59;;;;;;;;;;;;;;;;;;5048119;28;19936;-70
2021/05/19 05:43:26;;;;;;;;;;;;;;;;;;5049236;28;19967;-70
2021/05/19 05:45:52;;;;;;;;;;;;;;;;;;5055365;28;20332;-71
2021/05/19 05:48:19;;;;;;;;;;;;;;;;;;5051672;28;19939;-70
2021/05/19 05:50:45;;;;;;;;;;;;;;;;;;5050077;28;20455;-69
2021/05/19 05:53:12;;;;;;;;;;;;;;;;;;5048367;28;20004;-70
2021/05/19 05:55:38;;;;;;;;;;;;;;;;;;5052910;28;19933;-70
2021/05/19 05:58:05;;;;;;;;;;;;;;;;;;5050764;28;20393;-70
2021/05/19 06:00:31;;;;;;;;;;;;;;;;;;5050772;28;19929;-70
2021/05/19 06:02:58;;;;;;;;;;;;;;;;;;5052116;28;20687;-70
2021/05/19 06:05:24;;;;;;;;;;;;;;;;;;5049704;28;19929;-70
2021/05/19 06:07:51;;;;;;;;;;;;;;;;;;5048674;28;20042;-70
2021/05/19 06:10:17;;;;;;;;;;;;;;;;;;5051782;28;19925;-69
2021/05/19 06:12:44;;;;;;;;;;;;;;;;;;5050788;28;20028;-70
2021/05/19 06:15:10;;;;;;;;;;;;;;;;;;5051416;28;20027;-69
2021/05/19 06:17:37;;;;;;;;;;;;;;;;;;5050682;28;19929;-71
2021/05/19 06:20:03;;;;;;;;;;;;;;;;;;5050202;28;19951;-69
2021/05/19 06:22:30;;;;;;;;;;;;;;;;;;5048238;28;20301;-71
2021/05/19 06:24:57;;;;;;;;;;;;;;;;;;5048387;28;20293;-70
2021/05/19 06:27:23;;;;;;;;;;;;;;;;;;5050016;28;19925;-70
2021/05/19 06:29:50;;;;;;;;;;;;;;;;;;5049305;28;19933;-70
2021/05/19 06:32:16;;;;;;;;;;;;;;;;;;5049632;28;19936;-70
2021/05/19 06:34:43;;;;;;;;;;;;;;;;;;5049949;28;19951;-70
2021/05/19 06:37:09;;;;;;;;;;;;;;;;;;5050027;28;19932;-69
2021/05/19 06:39:36;;;;;;;;;;;;;;;;;;5047989;28;20001;-70
2021/05/19 06:42:02;;;;;;;;;;;;;;;;;;5048272;28;20016;-70
2021/05/19 06:44:29;;;;;;;;;;;;;;;;;;5051882;28;19975;-70
2021/05/19 06:46:55;;;;;;;;;;;;;;;;;;5035884;28;19925;-70
2021/05/19 06:49:22;;;;;;;;;;;;;;;;;;5031705;28;20009;-70
2021/05/19 06:51:48;;;;;;;;;;;;;;;;;;5043333;28;20369;-70
2021/05/19 06:54:15;;;;;;;;;;;;;;;;;;5048676;28;21546;-70
2021/05/19 06:56:44;;;;;;;;;;;;;;;;;;5046861;28;19931;-70
2021/05/19 06:59:10;;;;;;;;;;;;;;;;;;5046418;28;19925;-70
2021/05/19 07:01:37;;;;;;;;;;;;;;;;;;5047393;28;20000;-71
2021/05/19 07:04:03;;;;;;;;;;;;;;;;;;5050058;28;20367;-70
2021/05/19 07:06:30;;;;;;;;;;;;;;;;;;5049325;28;19929;-72
2021/05/19 07:08:56;;;;;;;;;;;;;;;;;;5050802;28;19943;-70
2021/05/19 07:11:23;;;;;;;;;;;;;;;;;;5045094;28;20362;-70
2021/05/19 07:13:51;;;;;;;;;;;;;;;;;;5048215;28;20047;-70
2021/05/19 07:16:19;;;;;;;;;;;;;;;;;;5052012;28;19935;-70
2021/05/19 07:18:46;;;;;;;;;;;;;;;;;;5052765;28;19929;-70
2021/05/19 07:21:12;;;;;;;;;;;;;;;;;;5045857;28;19932;-68
2021/05/19 07:23:39;;;;;;;;;;;;;;;;;;5048465;28;19925;-70
2021/05/19 07:26:05;;;;;;;;;;;;;;;;;;5053428;28;19925;-70
2021/05/19 07:28:32;;;;;;;;;;;;;;;;;;5051028;28;19971;-70
2021/05/19 07:30:58;;;;;;;;;;;;;;;;;;5047315;28;19933;-70
2021/05/19 07:33:25;;;;;;;;;;;;;;;;;;5049679;28;19931;-70
2021/05/19 07:35:51;;;;;;;;;;;;;;;;;;5049226;28;20046;-68
2021/05/19 07:38:18;;;;;;;;;;;;;;;;;;5049860;28;19925;-71
2021/05/19 07:40:44;;;;;;;;;;;;;;;;;;5043119;28;19925;-69
2021/05/19 07:43:11;;;;;;;;;;;;;;;;;;5048757;28;19929;-70
2021/05/19 07:45:37;;;;;;;;;;;;;;;;;;5049946;28;19947;-70
2021/05/19 07:48:04;;;;;;;;;;;;;;;;;;5045875;28;20389;-69
2021/05/19 07:50:30;;;;;;;;;;;;;;;;;;5046794;28;19931;-71
2021/05/19 07:52:57;;;;;;;;;;;;;;;;;;5050135;28;19925;-70
2021/05/19 07:55:26;;;;;;;;;;;;;;;;;;5047714;28;19929;-70
2021/05/19 07:57:56;;;;;;;;;;;;;;;;;;5041490;28;19933;-68
2021/05/19 08:00:28;;;;;;;;;;;;;;;;;;5038218;28;19932;-69
2021/05/19 08:02:54;;;;;;;;;;;;;;;;;;5050014;28;20044;-69
2021/05/19 08:05:21;;;;;;;;;;;;;;;;;;5049410;28;19932;-69
2021/05/19 08:07:47;;;;;;;;;;;;;;;;;;5049983;28;20392;-68
2021/05/19 08:10:14;;;;;;;;;;;;;;;;;;5044557;28;19924;-70
2021/05/19 08:12:40;;;;;;;;;;;;;;;;;;5046020;28;20422;-70
2021/05/19 08:15:07;;;;;;;;;;;;;;;;;;5048001;28;19929;-70
2021/05/19 08:17:33;;;;;;;;;;;;;;;;;;5047405;28;20332;-70
2021/05/19 08:20:00;;;;;;;;;;;;;;;;;;5043760;28;20000;-70
2021/05/19 08:22:26;;;;;;;;;;;;;;;;;;5045499;28;19931;-70
2021/05/19 08:24:53;;;;;;;;;;;;;;;;;;5049892;28;20012;-70
2021/05/19 08:27:19;;;;;;;;;;;;;;;;;;5049501;28;20174;-70
2021/05/19 08:29:46;;;;;;;;;;;;;;;;;;5038781;28;19929;-69
2021/05/19 08:32:13;;;;;;;;;;;;;;;;;;5044814;28;19972;-71
2021/05/19 08:34:40;;;;;;;;;;;;;;;;;;5048002;28;19928;-71
2021/05/19 08:37:07;;;;;;;;;;;;;;;;;;5049932;28;20343;-71
2021/05/19 08:39:33;;;;;;;;;;;;;;;;;;5045984;28;19939;-70
2021/05/19 08:42:00;;;;;;;;;;;;;;;;;;5047426;28;19929;-71
2021/05/19 08:44:26;;;;;;;;;;;;;;;;;;5046420;28;19932;-71
2021/05/19 08:46:56;;;;;;;;;;;;;;;;;;5049399;28;20380;-71
2021/05/19 08:49:22;;;;;;;;;;;;;;;;;;5043645;28;19932;-72
2021/05/19 08:51:49;;;;;;;;;;;;;;;;;;5049046;28;19935;-71
2021/05/19 08:54:17;;;;;;;;;;;;;;;;;;5046446;28;19930;-71
2021/05/19 08:56:44;;;;;;;;;;;;;;;;;;5042905;28;19931;-69
2021/05/19 08:59:10;;;;;;;;;;;;;;;;;;5043963;28;20292;-70
2021/05/19 09:01:37;;;;;;;;;;;;;;;;;;5038129;28;20535;-69
2021/05/19 09:04:03;;;;;;;;;;;;;;;;;;5044586;28;19933;-70
2021/05/19 09:06:30;;;;;;;;;;;;;;;;;;5050554;28;19939;-70
2021/05/19 09:08:56;;;;;;;;;;;;;;;;;;5061326;28;19928;-70
2021/05/19 09:11:23;;;;;;;;;;;;;;;;;;5052022;28;19995;-71
2021/05/19 09:13:49;;;;;;;;;;;;;;;;;;5048540;28;20015;-71
2021/05/19 09:16:19;;;;;;;;;;;;;;;;;;5053195;28;19925;-70
2021/05/19 09:18:45;;;;;;;;;;;;;;;;;;5060983;28;19924;-73
2021/05/19 09:21:12;;;;;;;;;;;;;;;;;;5056449;28;19936;-72
2021/05/19 09:23:38;;;;;;;;;;;;;;;;;;5063258;28;20007;-72
2021/05/19 09:26:05;;;;;;;;;;;;;;;;;;5052912;28;19932;-70
2021/05/19 09:28:32;;;;;;;;;;;;;;;;;;5047709;28;19982;-70
2021/05/19 09:30:58;;;;;;;;;;;;;;;;;;5050933;22;20755;-66
2021/05/19 09:33:26;;;;;;;;;;;;;;;;;;5027599;28;20431;-66
2021/05/19 09:35:52;;;;;;;;;;;;;;;;;;5026775;28;19932;-66
2021/05/19 09:38:19;;;;;;;;;;;;;;;;;;5028215;28;19970;-66
2021/05/19 09:40:45;;;;;;;;;;;;;;;;;;5026799;28;20350;-65
2021/05/19 09:43:12;;;;;;;;;;;;;;;;;;5027771;28;19979;-66
2021/05/19 09:45:41;;;;;;;;;;;;;;;;;;5027972;28;20041;-66
2021/05/19 09:48:07;;;;;;;;;;;;;;;;;;5024996;28;19929;-66
2021/05/19 09:50:34;;;;;;;;;;;;;;;;;;5023427;28;19999;-66
2021/05/19 09:53:00;;;;;;;;;;;;;;;;;;5027695;28;19972;-66
2021/05/19 09:55:27;;;;;;;;;;;;;;;;;;5026038;28;19925;-66
2021/05/19 09:57:53;;;;;;;;;;;;;;;;;;5022597;28;20423;-66
2021/05/19 10:00:20;;;;;;;;;;;;;;;;;;5019588;28;19925;-67
2021/05/19 10:02:47;;;;;;;;;;;;;;;;;;5024204;28;19925;-66
2021/05/19 10:05:16;;;;;;;;;;;;;;;;;;5027167;28;19937;-66
2021/05/19 10:07:43;;;;;;;;;;;;;;;;;;5027254;28;19925;-66
2021/05/19 10:10:09;;;;;;;;;;;;;;;;;;5021750;28;19956;-65
2021/05/19 10:12:37;;;;;;;;;;;;;;;;;;5026278;28;19925;-66
2021/05/19 10:15:03;;;;;;;;;;;;;;;;;;5027510;28;19925;-66
2021/05/19 10:17:30;;;;;;;;;;;;;;;;;;5026059;28;20361;-65
2021/05/19 10:19:56;;;;;;;;;;;;;;;;;;5017330;28;19925;-67
2021/05/19 10:22:23;;;;;;;;;;;;;;;;;;5025051;28;19972;-67
2021/05/19 10:24:49;;;;;;;;;;;;;;;;;;5026078;28;19932;-66
2021/05/19 10:27:18;;;;;;;;;;;;;;;;;;5028550;28;19932;-67
2021/05/19 10:29:44;;;;;;;;;;;;;;;;;;5025416;28;20391;-66
2021/05/19 10:32:11;;;;;;;;;;;;;;;;;;5025324;28;19972;-67
2021/05/19 10:34:37;;;;;;;;;;;;;;;;;;5028433;28;20557;-67
2021/05/19 10:37:04;;;;;;;;;;;;;;;;;;5027954;28;20036;-67
2021/05/19 10:39:30;;;;;;;;;;;;;;;;;;5026415;28;19937;-67
2021/05/19 10:41:57;;;;;;;;;;;;;;;;;;5026658;28;19925;-68
2021/05/19 10:44:23;;;;;;;;;;;;;;;;;;5025731;28;20297;-67
2021/05/19 10:46:51;;;;;;;;;;;;;;;;;;5028995;28;20145;-67
2021/05/19 10:49:19;;;;;;;;;;;;;;;;;;5025662;28;19925;-67
2021/05/19 10:51:49;;;;;;;;;;;;;;;;;;5025634;28;19929;-68
2021/05/19 10:57:28;;;;;;;;;;;;;;;;;;5028923;28;20266;-68
2021/05/19 10:59:54;;;;;;;;;;;;;;;;;;5025032;28;19994;-66
2021/05/19 11:02:21;;;;;;;;;;;;;;;;;;5023352;28;19933;-66
2021/05/19 11:04:47;;;;;;;;;;;;;;;;;;5031595;28;19992;-68
2021/05/19 11:07:14;;;;;;;;;;;;;;;;;;5026628;28;19930;-67
2021/05/19 11:09:43;;;;;;;;;;;;;;;;;;5024728;28;19933;-67
2021/05/19 11:12:12;;;;;;;;;;;;;;;;;;5026866;28;19932;-67
2021/05/19 11:14:45;;;;;;;;;;;;;;;;;;5029598;28;20023;-66
2021/05/19 11:17:18;;;;;;;;;;;;;;;;;;5029090;28;19932;-66
2021/05/19 11:19:45;;;;;;;;;;;;;;;;;;5024868;28;19944;-65
2021/05/19 11:22:11;;;;;;;;;;;;;;;;;;5029203;28;20023;-66
2021/05/19 11:24:38;;;;;;;;;;;;;;;;;;5029501;28;19929;-67
2021/05/19 11:27:05;;;;;;;;;;;;;;;;;;5030439;28;19929;-66
2021/05/19 11:29:31;;;;;;;;;;;;;;;;;;5026671;28;19925;-66
2021/05/19 11:31:58;;;;;;;;;;;;;;;;;;5025721;28;19933;-66
2021/05/19 11:34:24;;;;;;;;;;;;;;;;;;5026136;28;19964;-66
2021/05/19 11:36:52;;;;;;;;;;;;;;;;;;5026974;28;19951;-67
2021/05/19 11:39:22;;;;;;;;;;;;;;;;;;5026075;28;20285;-67
2021/05/19 11:41:48;;;;;;;;;;;;;;;;;;5022520;28;20629;-66
2021/05/19 11:44:15;;;;;;;;;;;;;;;;;;5026024;28;20380;-66
2021/05/19 11:46:41;;;;;;;;;;;;;;;;;;5028535;28;19926;-66
2021/05/19 11:49:11;;;;;;;;;;;;;;;;;;5028852;28;19994;-66
2021/05/19 11:51:38;;;;;;;;;;;;;;;;;;5025909;28;19971;-67
2021/05/19 11:54:04;;;;;;;;;;;;;;;;;;5027156;28;19929;-66
2021/05/19 11:56:31;;;;;;;;;;;;;;;;;;5030820;28;20016;-65
2021/05/19 11:58:57;;;;;;;;;;;;;;;;;;5025616;28;20020;-65
2021/05/19 12:01:24;;;;;;;;;;;;;;;;;;5020929;28;20161;-66
2021/05/19 12:03:50;;;;;;;;;;;;;;;;;;5023029;28;19925;-65
2021/05/19 12:06:17;;;;;;;;;;;;;;;;;;5027285;28;19947;-65
2021/05/19 12:08:44;;;;;;;;;;;;;;;;;;5024615;28;19955;-66
2021/05/19 12:11:11;;;;;;;;;;;;;;;;;;5020781;28;19933;-67
2021/05/19 12:13:38;;;;;;;;;;;;;;;;;;5024901;28;19929;-66
2021/05/19 12:16:04;;;;;;;;;;;;;;;;;;5025026;28;20426;-66
2021/05/19 12:18:31;;;;;;;;;;;;;;;;;;5026489;28;19983;-65
2021/05/19 12:20:57;;;;;;;;;;;;;;;;;;5025086;28;20343;-66
2021/05/19 12:23:24;;;;;;;;;;;;;;;;;;5026213;28;20019;-65
2021/05/19 12:25:56;;;;;;;;;;;;;;;;;;5028483;28;19994;-65
2021/05/19 12:28:22;;;;;;;;;;;;;;;;;;5029929;28;19933;-67
2021/05/19 12:30:49;;;;;;;;;;;;;;;;;;5024679;28;19925;-65
2021/05/19 12:33:19;;;;;;;;;;;;;;;;;;5026732;28;19976;-66
2021/05/19 12:35:46;;;;;;;;;;;;;;;;;;5024203;28;19937;-66
2021/05/19 12:38:13;;;;;;;;;;;;;;;;;;5025040;28;19925;-66
2021/05/19 12:40:39;;;;;;;;;;;;;;;;;;5019780;28;19926;-65
2021/05/19 12:43:06;;;;;;;;;;;;;;;;;;5026509;28;19929;-64
2021/05/19 12:45:33;;;;;;;;;;;;;;;;;;5029734;28;20051;-64
2021/05/19 12:48:00;;;;;;;;;;;;;;;;;;5022699;28;19925;-64
2021/05/19 12:50:26;;;;;;;;;;;;;;;;;;5025362;28;19937;-65
2021/05/19 12:52:53;;;;;;;;;;;;;;;;;;5027232;28;20025;-67
2021/05/19 12:55:19;;;;;;;;;;;;;;;;;;5026751;28;20294;-66
2021/05/19 12:57:46;;;;;;;;;;;;;;;;;;5024327;28;20277;-67
2021/05/19 13:00:14;;;;;;;;;;;;;;;;;;5018869;28;19926;-66
2021/05/19 13:02:40;;;;;;;;;;;;;;;;;;5024959;28;20385;-65
2021/05/19 13:05:07;;;;;;;;;;;;;;;;;;5024957;28;19929;-64
2021/05/19 13:07:33;;;;;;;;;;;;;;;;;;5023234;28;19933;-66
2021/05/19 13:10:07;;;;;;;;;;;;;;;;;;5104521;27;19917;-65
2021/05/19 13:12:34;;;;;;;;;;;;;;;;;;5101969;28;19931;-66
2021/05/19 13:15:01;;;;;;;;;;;;;;;;;;5103436;28;20341;-66
2021/05/19 13:17:29;;;;;;;;;;;;;;;;;;5098468;28;20360;-66
2021/05/19 13:19:56;;;;;;;;;;;;;;;;;;5098448;28;19988;-68
2021/05/19 13:22:22;;;;;;;;;;;;;;;;;;5100198;28;20298;-67
2021/05/19 13:24:49;;;;;;;;;;;;;;;;;;5099211;28;20014;-67
2021/05/19 13:27:16;;;;;;;;;;;;;;;;;;5103398;28;19955;-68
2021/05/19 13:29:43;;;;;;;;;;;;;;;;;;5096384;28;19992;-67
2021/05/19 13:32:15;;;;;;;;;;;;;;;;;;5095850;28;19967;-67
2021/05/19 13:34:48;;;;;;;;;;;;;;;;;;5100329;28;19924;-65
2021/05/19 13:37:14;;;;;;;;;;;;;;;;;;5100546;28;19924;-65
2021/05/19 13:39:41;;;;;;;;;;;;;;;;;;5098271;28;19952;-66
2021/05/19 13:42:07;;;;;;;;;;;;;;;;;;5101405;28;19924;-66
2021/05/19 13:44:34;;;;;;;;;;;;;;;;;;5103024;28;20014;-68
2021/05/19 13:47:00;;;;;;;;;;;;;;;;;;5098875;28;19925;-67
2021/05/19 13:49:27;;;;;;;;;;;;;;;;;;5096848;28;20023;-68
2021/05/19 13:51:56;;;;;;;;;;;;;;;;;;5101752;28;19931;-65
2021/05/19 13:54:23;;;;;;;;;;;;;;;;;;5103233;28;19924;-68
2021/05/19 13:56:49;;;;;;;;;;;;;;;;;;5098824;28;20022;-68
2021/05/19 13:59:16;;;;;;;;;;;;;;;;;;5107741;28;19932;-67
2021/05/19 14:01:42;;;;;;;;;;;;;;;;;;5105573;28;19978;-67
2021/05/19 14:04:09;;;;;;;;;;;;;;;;;;5097658;28;20515;-67
2021/05/19 14:06:35;;;;;;;;;;;;;;;;;;5096465;28;20288;-66
2021/05/19 14:09:04;;;;;;;;;;;;;;;;;;5099470;28;19924;-67
2021/05/19 14:11:32;;;;;;;;;;;;;;;;;;5093567;28;19928;-67
2021/05/19 14:14:08;;;;;;;;;;;;;;;;;;5096508;28;20426;-67
2021/05/19 14:16:53;;;;;;;;;;;;;;;;;;5091896;28;19924;-68
2021/05/19 14:27:40;;;;;;;;;;;;;;;;;;5094335;28;19934;-67
2021/05/19 14:30:06;;;;;;;;;;;;;;;;;;5085845;28;19924;-67
2021/05/19 14:32:33;;;;;;;;;;;;;;;;;;5081367;28;19979;-68
2021/05/19 14:35:04;;;;;;;;;;;;;;;;;;5082329;28;20336;-67
2021/05/19 14:46:35;;;;;;;;;;;;;;;;;;5035752;28;20111;-67
2021/05/19 15:00:00;;;;;;;;;;;;;;;;;;5082784;28;20017;-66
2021/05/19 15:02:27;;;;;;;;;;;;;;;;;;5080768;28;20003;-66
2021/05/19 15:04:56;;;;;;;;;;;;;;;;;;5086288;28;19924;-66
2021/05/19 15:07:26;;;;;;;;;;;;;;;;;;5085125;28;19924;-66
2021/05/19 15:09:53;;;;;;;;;;;;;;;;;;5089543;28;19963;-66
2021/05/19 15:12:20;;;;;;;;;;;;;;;;;;5087564;28;20327;-66
2021/05/19 15:14:48;;;;;;;;;;;;;;;;;;5096852;28;20269;-66
2021/05/19 15:17:15;;;;;;;;;;;;;;;;;;5093114;28;19924;-67
2021/05/19 15:19:43;;;;;;;;;;;;;;;;;;5088482;28;19929;-67
2021/05/19 15:22:11;;;;;;;;;;;;;;;;;;5090921;28;20288;-67
2021/05/19 15:24:37;;;;;;;;;;;;;;;;;;5087463;28;20011;-67
2021/05/19 15:27:06;;;;;;;;;;;;;;;;;;5083149;28;19924;-67
2021/05/19 15:29:35;;;;;;;;;;;;;;;;;;5079677;28;19927;-67
2021/05/19 15:32:02;;;;;;;;;;;;;;;;;;5081720;28;20428;-67
2021/05/19 15:34:28;;;;;;;;;;;;;;;;;;5083935;28;19928;-66
2021/05/19 15:36:55;;;;;;;;;;;;;;;;;;5086687;28;20075;-66
2021/05/19 15:39:21;;;;;;;;;;;;;;;;;;5083570;28;19993;-65
2021/05/19 15:41:48;;;;;;;;;;;;;;;;;;5080023;28;20006;-67
2021/05/19 15:44:14;;;;;;;;;;;;;;;;;;5084754;28;19928;-68
2021/05/19 15:46:41;;;;;;;;;;;;;;;;;;5084577;28;20401;-67
2021/05/19 15:49:07;;;;;;;;;;;;;;;;;;5086005;28;19928;-67
2021/05/19 15:51:36;;;;;;;;;;;;;;;;;;5083351;28;20472;-67
2021/05/19 15:54:04;;;;;;;;;;;;;;;;;;5083528;28;20372;-67
2021/05/19 15:56:32;;;;;;;;;;;;;;;;;;5083794;28;19932;-67
2021/05/19 15:58:59;;;;;;;;;;;;;;;;;;5086419;28;20303;-67
2021/05/19 16:01:27;;;;;;;;;;;;;;;;;;5087696;28;20402;-67
2021/05/19 16:03:56;;;;;;;;;;;;;;;;;;5091235;28;19932;-67
2021/05/19 16:06:23;;;;;;;;;;;;;;;;;;5087883;28;19964;-68
2021/05/19 16:08:49;;;;;;;;;;;;;;;;;;5085648;28;19928;-66
2021/05/19 16:11:16;;;;;;;;;;;;;;;;;;5086181;28;20322;-67
2021/05/19 16:13:42;;;;;;;;;;;;;;;;;;5079850;28;19924;-67
2021/05/19 16:16:09;;;;;;;;;;;;;;;;;;5082257;28;19932;-67
2021/05/19 16:18:35;;;;;;;;;;;;;;;;;;5087473;28;20004;-68
2021/05/19 16:21:02;;;;;;;;;;;;;;;;;;5092998;28;19924;-67
2021/05/19 16:23:28;;;;;;;;;;;;;;;;;;5081992;28;19924;-67
2021/05/19 16:25:56;;;;;;;;;;;;;;;;;;5081692;28;20007;-68
2021/05/19 16:28:22;;;;;;;;;;;;;;;;;;5081649;28;20048;-68
2021/05/19 16:30:49;;;;;;;;;;;;;;;;;;5082005;28;19971;-68
2021/05/19 16:33:45;;;;;;;;;;;;;;;;;;5080680;28;19920;-67
2021/05/19 16:36:13;;;;;;;;;;;;;;;;;;5080160;28;19931;-68
2021/05/19 16:38:39;;;;;;;;;;;;;;;;;;5081049;28;20058;-68
2021/05/19 16:41:06;;;;;;;;;;;;;;;;;;5079092;28;19924;-67
2021/05/19 16:43:32;;;;;;;;;;;;;;;;;;5080925;28;19963;-67
2021/05/19 16:45:59;;;;;;;;;;;;;;;;;;5080476;28;19936;-68
2021/05/19 16:48:25;;;;;;;;;;;;;;;;;;5079270;28;19995;-68
2021/05/19 16:50:52;;;;;;;;;;;;;;;;;;5079023;28;20015;-66
2021/05/19 16:53:18;;;;;;;;;;;;;;;;;;5081167;28;19936;-67
2021/05/19 16:55:45;;;;;;;;;;;;;;;;;;5082746;28;20023;-67
2021/05/19 16:58:11;;;;;;;;;;;;;;;;;;5081695;28;19993;-65
2021/05/19 17:00:38;;;;;;;;;;;;;;;;;;5077161;28;19928;-66
2021/05/19 17:05:49;;;;;;;;;;;;;;;;;;5084227;28;20330;-67
2021/05/19 17:08:15;;;;;;;;;;;;;;;;;;5083839;28;19932;-67
2021/05/19 17:10:42;;;;;;;;;;;;;;;;;;5082017;28;19928;-68
2021/05/19 17:13:09;;;;;;;;;;;;;;;;;;5086195;28;19928;-67
2021/05/19 17:15:35;;;;;;;;;;;;;;;;;;5082278;28;19935;-67
2021/05/19 17:18:02;;;;;;;;;;;;;;;;;;5078813;28;19931;-66